createdAt,value
2023-05-21T00:00:21.623Z,0.00
2023-05-21T00:01:21.610Z,0.00
2023-05-21T00:02:21.621Z,0.00
2023-05-21T00:03:21.692Z,0.00
2023-05-21T00:04:21.563Z,0.00
2023-05-21T00:05:21.573Z,0.00
2023-05-21T00:06:21.576Z,0.00
2023-05-21T00:07:21.551Z,0.00
2023-05-21T00:08:21.539Z,0.00
2023-05-21T00:09:21.533Z,0.00
2023-05-21T00:10:21.517Z,0.00
2023-05-21T00:11:21.523Z,0.00
2023-05-21T00:12:21.484Z,0.00
2023-05-21T00:13:21.476Z,0.00
2023-05-21T00:14:21.490Z,0.00
2023-05-21T00:15:21.464Z,0.00
2023-05-21T00:16:21.482Z,0.00
2023-05-21T00:17:21.460Z,0.00
2023-05-21T00:18:21.426Z,0.00
2023-05-21T00:19:21.534Z,0.00
2023-05-21T00:20:21.416Z,0.00
2023-05-21T00:21:21.397Z,0.00
2023-05-21T00:22:21.376Z,0.00
2023-05-21T00:23:21.412Z,0.00
2023-05-21T00:24:21.352Z,0.00
2023-05-21T00:25:21.353Z,0.00
2023-05-21T00:26:21.331Z,0.00
2023-05-21T00:27:21.359Z,0.00
2023-05-21T00:28:21.316Z,0.00
2023-05-21T00:29:21.322Z,0.00
2023-05-21T00:30:21.294Z,0.00
2023-05-21T00:31:21.354Z,0.00
2023-05-21T00:32:21.289Z,0.00
2023-05-21T00:33:21.263Z,0.00
2023-05-21T00:34:21.241Z,0.00
2023-05-21T00:35:21.236Z,0.00
2023-05-21T00:36:21.217Z,0.00
2023-05-21T00:37:21.222Z,0.00
2023-05-21T00:38:21.205Z,0.00
2023-05-21T00:39:21.192Z,0.00
2023-05-21T00:40:21.179Z,0.00
2023-05-21T00:41:21.180Z,0.00
2023-05-21T00:42:21.156Z,0.00
2023-05-21T00:43:21.181Z,0.00
2023-05-21T00:44:21.136Z,0.00
2023-05-21T00:45:21.134Z,0.00
2023-05-21T00:46:21.182Z,0.00
2023-05-21T00:47:21.206Z,0.00
2023-05-21T00:48:21.091Z,0.00
2023-05-21T00:49:21.089Z,0.00
2023-05-21T00:50:21.077Z,0.00
2023-05-21T00:51:21.072Z,0.00
2023-05-21T00:52:21.058Z,0.00
2023-05-21T00:53:21.053Z,0.00
2023-05-21T00:54:21.026Z,0.00
2023-05-21T00:55:21.025Z,0.00
2023-05-21T00:56:21.013Z,0.00
2023-05-21T00:57:21.005Z,0.00
2023-05-21T00:58:20.988Z,0.00
2023-05-21T00:59:21.007Z,0.00
2023-05-21T01:00:20.969Z,0.00
2023-05-21T01:01:21.028Z,0.00
2023-05-21T01:02:20.995Z,0.00
2023-05-21T01:03:21.262Z,0.00
2023-05-21T01:04:20.939Z,0.00
2023-05-21T01:05:20.922Z,0.00
2023-05-21T01:06:20.896Z,0.00
2023-05-21T01:07:20.906Z,0.00
2023-05-21T01:08:20.878Z,0.00
2023-05-21T01:09:20.882Z,0.00
2023-05-21T01:10:20.857Z,0.00
2023-05-21T01:11:20.854Z,0.00
2023-05-21T01:12:20.831Z,0.00
2023-05-21T01:13:20.832Z,0.00
2023-05-21T01:14:20.822Z,0.00
2023-05-21T01:15:20.830Z,0.00
2023-05-21T01:16:20.817Z,0.00
2023-05-21T01:17:20.851Z,0.00
2023-05-21T01:18:20.793Z,0.00
2023-05-21T01:19:20.834Z,0.00
2023-05-21T01:20:20.751Z,0.00
2023-05-21T01:21:20.768Z,0.00
2023-05-21T01:22:20.734Z,0.00
2023-05-21T01:23:20.743Z,0.00
2023-05-21T01:24:20.710Z,0.00
2023-05-21T01:25:20.710Z,0.00
2023-05-21T01:26:20.696Z,0.00
2023-05-21T01:27:20.680Z,0.00
2023-05-21T01:28:20.664Z,0.00
2023-05-21T01:29:20.678Z,0.00
2023-05-21T01:30:20.643Z,0.00
2023-05-21T01:31:20.672Z,0.00
2023-05-21T01:32:20.611Z,0.00
2023-05-21T01:33:20.690Z,0.00
2023-05-21T01:34:20.611Z,0.00
2023-05-21T01:35:20.596Z,0.00
2023-05-21T01:36:20.576Z,0.00
2023-05-21T01:37:20.576Z,0.00
2023-05-21T01:38:20.571Z,0.00
2023-05-21T01:39:20.547Z,0.00
2023-05-21T01:40:20.534Z,0.00
2023-05-21T01:41:20.537Z,0.00
2023-05-21T01:42:20.512Z,0.00
2023-05-21T01:43:20.517Z,0.00
2023-05-21T01:44:20.488Z,0.00
2023-05-21T01:45:20.491Z,0.00
2023-05-21T01:46:20.492Z,0.00
2023-05-21T01:47:20.498Z,0.00
2023-05-21T01:48:20.455Z,0.00
2023-05-21T01:49:20.445Z,0.00
2023-05-21T01:50:20.447Z,0.00
2023-05-21T01:51:20.430Z,0.00
2023-05-21T01:52:20.405Z,0.00
2023-05-21T01:53:20.407Z,0.00
2023-05-21T01:54:20.379Z,0.00
2023-05-21T01:55:20.381Z,0.00
2023-05-21T01:56:20.362Z,0.00
2023-05-21T01:57:20.365Z,0.00
2023-05-21T01:58:20.342Z,0.00
2023-05-21T01:59:20.340Z,0.00
2023-05-21T02:00:20.330Z,0.00
2023-05-21T02:01:20.398Z,0.00
2023-05-21T02:02:20.360Z,0.00
2023-05-21T02:03:20.469Z,0.00
2023-05-21T02:04:20.273Z,0.00
2023-05-21T02:05:20.296Z,0.00
2023-05-21T02:06:20.257Z,0.00
2023-05-21T02:07:20.255Z,0.00
2023-05-21T02:08:20.237Z,0.00
2023-05-21T02:09:20.232Z,0.00
2023-05-21T02:10:20.226Z,0.00
2023-05-21T02:11:20.205Z,0.00
2023-05-21T02:12:20.186Z,0.00
2023-05-21T02:13:20.185Z,0.00
2023-05-21T02:14:20.170Z,0.00
2023-05-21T02:15:20.168Z,0.00
2023-05-21T02:16:20.202Z,0.00
2023-05-21T02:17:20.163Z,0.00
2023-05-21T02:18:20.123Z,0.00
2023-05-21T02:19:20.207Z,0.00
2023-05-21T02:20:20.112Z,0.00
2023-05-21T02:21:20.115Z,0.00
2023-05-21T02:22:20.082Z,0.00
2023-05-21T02:23:20.149Z,0.00
2023-05-21T02:24:20.074Z,0.00
2023-05-21T02:25:20.073Z,0.00
2023-05-21T02:26:20.044Z,0.00
2023-05-21T02:27:20.037Z,0.00
2023-05-21T02:28:20.029Z,0.00
2023-05-21T02:29:20.027Z,0.00
2023-05-21T02:30:19.995Z,0.00
2023-05-21T02:31:20.018Z,0.00
2023-05-21T02:32:19.978Z,0.00
2023-05-21T02:33:19.974Z,0.00
2023-05-21T02:34:20.019Z,0.00
2023-05-21T02:35:19.976Z,0.00
2023-05-21T02:36:19.937Z,0.00
2023-05-21T02:37:19.937Z,0.00
2023-05-21T02:38:19.927Z,0.00
2023-05-21T02:39:19.919Z,0.00
2023-05-21T02:40:19.896Z,0.00
2023-05-21T02:41:19.909Z,0.00
2023-05-21T02:42:19.885Z,0.00
2023-05-21T02:43:19.881Z,0.00
2023-05-21T02:44:19.858Z,0.00
2023-05-21T02:45:19.846Z,0.00
2023-05-21T02:46:19.840Z,0.00
2023-05-21T02:47:19.840Z,0.00
2023-05-21T02:48:19.807Z,0.00
2023-05-21T02:49:19.805Z,0.00
2023-05-21T02:50:19.786Z,0.00
2023-05-21T02:51:19.810Z,0.00
2023-05-21T02:52:19.764Z,0.00
2023-05-21T02:53:19.765Z,0.00
2023-05-21T02:54:19.749Z,0.00
2023-05-21T02:55:19.746Z,0.00
2023-05-21T02:56:19.725Z,0.00
2023-05-21T02:57:19.738Z,0.00
2023-05-21T02:58:19.746Z,0.00
2023-05-21T02:59:19.696Z,0.00
2023-05-21T03:00:19.687Z,0.00
2023-05-21T03:01:19.719Z,0.00
2023-05-21T03:02:19.715Z,0.00
2023-05-21T03:03:19.749Z,0.00
2023-05-21T03:04:19.625Z,0.00
2023-05-21T03:05:19.627Z,0.00
2023-05-21T03:06:19.620Z,0.00
2023-05-21T03:07:19.638Z,0.00
2023-05-21T03:08:19.586Z,0.00
2023-05-21T03:09:19.584Z,0.00
2023-05-21T03:10:19.585Z,0.00
2023-05-21T03:11:19.577Z,0.00
2023-05-21T03:12:19.563Z,0.00
2023-05-21T03:13:19.529Z,1.00
2023-05-21T03:14:19.518Z,1.00
2023-05-21T03:15:19.465Z,1.00
2023-05-21T03:16:19.511Z,1.00
2023-05-21T03:17:19.440Z,1.00
2023-05-21T03:18:19.432Z,2.00
2023-05-21T03:19:19.430Z,2.00
2023-05-21T03:20:19.415Z,2.00
2023-05-21T03:21:19.398Z,3.00
2023-05-21T03:22:19.394Z,3.00
2023-05-21T03:23:19.405Z,4.00
2023-05-21T03:24:19.372Z,4.00
2023-05-21T03:25:19.360Z,8.00
2023-05-21T03:26:19.352Z,6.00
2023-05-21T03:27:19.335Z,9.00
2023-05-21T03:28:19.335Z,11.00
2023-05-21T03:29:19.314Z,11.00
2023-05-21T03:30:19.309Z,15.00
2023-05-21T03:31:19.293Z,16.00
2023-05-21T03:32:19.431Z,16.00
2023-05-21T03:33:19.273Z,18.00
2023-05-21T03:34:19.268Z,22.00
2023-05-21T03:35:19.254Z,21.00
2023-05-21T03:36:19.242Z,23.00
2023-05-21T03:37:19.231Z,28.00
2023-05-21T03:38:19.231Z,29.00
2023-05-21T03:39:19.229Z,34.00
2023-05-21T03:40:19.215Z,37.00
2023-05-21T03:41:19.180Z,39.00
2023-05-21T03:42:19.186Z,44.00
2023-05-21T03:43:19.164Z,50.00
2023-05-21T03:44:19.165Z,52.00
2023-05-21T03:45:19.147Z,58.00
2023-05-21T03:46:19.202Z,62.00
2023-05-21T03:47:19.176Z,70.00
2023-05-21T03:48:19.117Z,73.00
2023-05-21T03:49:19.097Z,77.00
2023-05-21T03:50:19.090Z,85.00
2023-05-21T03:51:19.073Z,92.00
2023-05-21T03:52:19.080Z,98.00
2023-05-21T03:53:19.054Z,102.00
2023-05-21T03:54:19.071Z,110.00
2023-05-21T03:55:19.059Z,115.00
2023-05-21T03:56:19.036Z,125.00
2023-05-21T03:57:19.009Z,136.00
2023-05-21T03:58:19.018Z,143.00
2023-05-21T03:59:19.009Z,149.00
2023-05-21T04:00:18.983Z,159.00
2023-05-21T04:01:18.964Z,171.00
2023-05-21T04:02:19.025Z,178.00
2023-05-21T04:03:19.082Z,190.00
2023-05-21T04:04:18.975Z,200.00
2023-05-21T04:05:18.930Z,207.00
2023-05-21T04:06:18.925Z,217.00
2023-05-21T04:07:18.903Z,221.00
2023-05-21T04:08:18.908Z,239.00
2023-05-21T04:09:18.877Z,247.00
2023-05-21T04:10:18.885Z,256.00
2023-05-21T04:11:18.879Z,264.00
2023-05-21T04:12:18.858Z,277.00
2023-05-21T04:13:18.842Z,287.00
2023-05-21T04:14:18.829Z,294.00
2023-05-21T04:15:18.821Z,306.00
2023-05-21T04:16:18.867Z,316.00
2023-05-21T04:17:18.807Z,323.00
2023-05-21T04:18:18.805Z,338.00
2023-05-21T04:20:18.769Z,374.00
2023-05-21T04:21:18.752Z,387.00
2023-05-21T04:22:18.744Z,396.00
2023-05-21T04:23:18.734Z,411.00
2023-05-21T04:24:18.732Z,425.00
2023-05-21T04:25:18.724Z,442.00
2023-05-21T04:26:18.710Z,463.00
2023-05-21T04:27:18.709Z,486.00
2023-05-21T04:28:18.694Z,503.00
2023-05-21T04:29:18.667Z,519.00
2023-05-21T04:30:18.689Z,542.00
2023-05-21T04:31:18.743Z,559.00
2023-05-21T04:32:18.662Z,579.00
2023-05-21T04:33:18.691Z,610.00
2023-05-21T04:34:18.631Z,628.00
2023-05-21T04:35:18.606Z,643.00
2023-05-21T04:36:18.594Z,666.00
2023-05-21T04:37:18.573Z,689.00
2023-05-21T04:38:18.593Z,719.00
2023-05-21T04:39:18.584Z,751.00
2023-05-21T04:40:18.614Z,779.00
2023-05-21T04:41:18.547Z,810.00
2023-05-21T04:42:18.545Z,843.00
2023-05-21T04:43:18.544Z,853.00
2023-05-21T04:44:18.516Z,879.00
2023-05-21T04:45:18.519Z,906.00
2023-05-21T04:46:18.511Z,923.00
2023-05-21T04:47:18.483Z,947.00
2023-05-21T04:48:18.477Z,969.00
2023-05-21T04:49:18.453Z,985.00
2023-05-21T04:50:18.443Z,978.00
2023-05-21T04:51:18.433Z,984.00
2023-05-21T04:52:18.435Z,1012.00
2023-05-21T04:53:18.414Z,1031.00
2023-05-21T04:54:18.415Z,1054.00
2023-05-21T04:55:18.399Z,1079.00
2023-05-21T04:56:18.380Z,1108.00
2023-05-21T04:57:18.422Z,1135.00
2023-05-21T04:58:18.418Z,1148.00
2023-05-21T04:59:18.367Z,1129.00
2023-05-21T05:00:18.348Z,1151.00
2023-05-21T05:01:18.388Z,1176.00
2023-05-21T05:02:18.318Z,1235.00
2023-05-21T05:03:18.592Z,1219.00
2023-05-21T05:04:18.308Z,1259.00
2023-05-21T05:05:18.290Z,1278.00
2023-05-21T05:06:18.281Z,1272.00
2023-05-21T05:07:18.276Z,1283.00
2023-05-21T05:08:18.255Z,1268.00
2023-05-21T05:09:18.242Z,1254.00
2023-05-21T05:10:18.238Z,1356.00
2023-05-21T05:11:18.212Z,1368.00
2023-05-21T05:12:18.216Z,1373.00
2023-05-21T05:13:18.194Z,1356.00
2023-05-21T05:14:18.218Z,1391.00
2023-05-21T05:15:18.201Z,1401.00
2023-05-21T05:16:18.219Z,1367.00
2023-05-21T05:17:18.153Z,1422.00
2023-05-21T05:18:18.151Z,1415.00
2023-05-21T05:19:18.219Z,1540.00
2023-05-21T05:20:18.145Z,1518.00
2023-05-21T05:21:18.112Z,1502.00
2023-05-21T05:22:18.107Z,1650.00
2023-05-21T05:23:18.097Z,1590.00
2023-05-21T05:24:18.086Z,1650.00
2023-05-21T05:25:18.069Z,1669.00
2023-05-21T05:26:18.060Z,1690.00
2023-05-21T05:27:18.041Z,1711.00
2023-05-21T05:28:18.043Z,1740.00
2023-05-21T05:29:18.053Z,1762.00
2023-05-21T05:30:18.016Z,1787.00
2023-05-21T05:31:18.103Z,1809.00
2023-05-21T05:32:18.002Z,1858.00
2023-05-21T05:33:17.982Z,1844.00
2023-05-21T05:34:17.982Z,1770.00
2023-05-21T05:35:17.970Z,1941.00
2023-05-21T05:36:17.957Z,1937.00
2023-05-21T05:37:17.962Z,1964.00
2023-05-21T05:38:17.932Z,2077.00
2023-05-21T05:39:17.915Z,1946.00
2023-05-21T05:40:17.915Z,1736.00
2023-05-21T05:41:17.908Z,1899.00
2023-05-21T05:42:17.893Z,2306.00
2023-05-21T05:43:17.871Z,2333.00
2023-05-21T05:44:17.869Z,2154.00
2023-05-21T05:45:17.854Z,2145.00
2023-05-21T05:46:17.866Z,2068.00
2023-05-21T05:47:17.850Z,2111.00
2023-05-21T05:48:17.830Z,2148.00
2023-05-21T05:49:17.800Z,2675.00
2023-05-21T05:50:17.801Z,2384.00
2023-05-21T05:51:17.778Z,2314.00
2023-05-21T05:52:17.795Z,2283.00
2023-05-21T05:53:17.758Z,2377.00
2023-05-21T05:54:17.761Z,2007.00
2023-05-21T05:55:17.741Z,1792.00
2023-05-21T05:56:17.740Z,2262.00
2023-05-21T05:57:17.727Z,2256.00
2023-05-21T05:58:17.711Z,2486.00
2023-05-21T05:59:17.710Z,2267.00
2023-05-21T06:00:17.685Z,2396.00
2023-05-21T06:01:17.758Z,2356.00
2023-05-21T06:02:17.793Z,2363.00
2023-05-21T06:03:17.874Z,2646.00
2023-05-21T06:04:17.652Z,2607.00
2023-05-21T06:05:17.786Z,2727.00
2023-05-21T06:06:17.829Z,1896.00
2023-05-21T06:07:17.659Z,2995.00
2023-05-21T06:08:17.698Z,2106.00
2023-05-21T06:09:17.590Z,2160.00
2023-05-21T06:10:17.692Z,2253.00
2023-05-21T06:11:17.560Z,2399.00
2023-05-21T06:12:17.561Z,2579.00
2023-05-21T06:13:17.538Z,2561.00
2023-05-21T06:14:17.537Z,2277.00
2023-05-21T06:15:17.521Z,2769.00
2023-05-21T06:16:17.594Z,3364.00
2023-05-21T06:17:17.505Z,1643.00
2023-05-21T06:18:17.493Z,2203.00
2023-05-21T06:19:17.549Z,2330.00
2023-05-21T06:20:17.477Z,2832.00
2023-05-21T06:21:17.456Z,2352.00
2023-05-21T06:22:17.454Z,2427.00
2023-05-21T06:23:17.433Z,2203.00
2023-05-21T06:24:17.454Z,2747.00
2023-05-21T06:25:17.419Z,2636.00
2023-05-21T06:26:17.409Z,2793.00
2023-05-21T06:27:17.412Z,2465.00
2023-05-21T06:28:17.386Z,2764.00
2023-05-21T06:29:17.387Z,2136.00
2023-05-21T06:30:17.364Z,2707.00
2023-05-21T06:31:17.357Z,2547.00
2023-05-21T06:32:17.398Z,2401.00
2023-05-21T06:33:17.414Z,2077.00
2023-05-21T06:34:17.327Z,2872.00
2023-05-21T06:35:17.333Z,2931.00
2023-05-21T06:36:17.305Z,2689.00
2023-05-21T06:37:17.289Z,2558.00
2023-05-21T06:38:17.286Z,2931.00
2023-05-21T06:39:17.254Z,2638.00
2023-05-21T06:40:17.255Z,2803.00
2023-05-21T06:41:17.238Z,2390.00
2023-05-21T06:42:17.237Z,2176.00
2023-05-21T06:43:17.227Z,2845.00
2023-05-21T06:44:17.213Z,1592.00
2023-05-21T06:45:17.192Z,3391.00
2023-05-21T06:46:17.219Z,3339.00
2023-05-21T06:47:17.172Z,3189.00
2023-05-21T06:48:17.187Z,2850.00
2023-05-21T06:49:17.161Z,2320.00
2023-05-21T06:50:17.177Z,2371.00
2023-05-21T06:51:17.156Z,2992.00
2023-05-21T06:52:17.126Z,3008.00
2023-05-21T06:53:17.110Z,3125.00
2023-05-21T06:54:17.113Z,3116.00
2023-05-21T06:55:17.090Z,3096.00
2023-05-21T06:56:17.111Z,3160.00
2023-05-21T06:57:17.068Z,3147.00
2023-05-21T06:58:17.074Z,3188.00
2023-05-21T06:59:17.055Z,3210.00
2023-05-21T07:00:17.041Z,3229.00
2023-05-21T07:01:17.173Z,3232.00
2023-05-21T07:02:17.089Z,3266.00
2023-05-21T07:03:17.105Z,3352.00
2023-05-21T07:04:17.002Z,3366.00
2023-05-21T07:05:16.991Z,3373.00
2023-05-21T07:06:16.995Z,3367.00
2023-05-21T07:07:16.977Z,3758.00
2023-05-21T07:08:16.957Z,3456.00
2023-05-21T07:09:16.942Z,3437.00
2023-05-21T07:10:16.933Z,3251.00
2023-05-21T07:11:16.911Z,3315.00
2023-05-21T07:12:16.910Z,3362.00
2023-05-21T07:13:16.893Z,3733.00
2023-05-21T07:14:16.887Z,3321.00
2023-05-21T07:15:16.875Z,3536.00
2023-05-21T07:16:16.924Z,3611.00
2023-05-21T07:17:16.844Z,3011.00
2023-05-21T07:18:16.876Z,3410.00
2023-05-21T07:19:16.895Z,3409.00
2023-05-21T07:20:16.836Z,3525.00
2023-05-21T07:21:16.817Z,3594.00
2023-05-21T07:22:16.800Z,3597.00
2023-05-21T07:23:16.810Z,4337.00
2023-05-21T07:24:16.792Z,3050.00
2023-05-21T07:25:16.756Z,3767.00
2023-05-21T07:26:16.765Z,3597.00
2023-05-21T07:27:25.473Z,3753.00
2023-05-21T07:28:17.773Z,3478.00
2023-05-21T07:29:16.730Z,3519.00
2023-05-21T07:30:16.705Z,3684.00
2023-05-21T07:31:16.733Z,4593.00
2023-05-21T07:32:16.686Z,3319.00
2023-05-21T07:33:16.697Z,2618.00
2023-05-21T07:34:16.668Z,3188.00
2023-05-21T07:35:16.662Z,3266.00
2023-05-21T07:36:16.642Z,3366.00
2023-05-21T07:37:16.647Z,3387.00
2023-05-21T07:38:16.618Z,3039.00
2023-05-21T07:39:16.747Z,3207.00
2023-05-21T07:40:16.639Z,2842.00
2023-05-21T07:41:18.559Z,3046.00
2023-05-21T07:42:16.585Z,2966.00
2023-05-21T07:43:16.586Z,2925.00
2023-05-21T07:44:16.562Z,3460.00
2023-05-21T07:45:16.585Z,3026.00
2023-05-21T07:46:16.622Z,3333.00
2023-05-21T07:47:16.537Z,2840.00
2023-05-21T07:48:16.517Z,2822.00
2023-05-21T07:49:16.690Z,2189.00
2023-05-21T07:50:16.497Z,2525.00
2023-05-21T07:51:16.492Z,3014.00
2023-05-21T07:52:16.487Z,2467.00
2023-05-21T07:53:16.474Z,2755.00
2023-05-21T07:54:16.465Z,2861.00
2023-05-21T07:55:16.481Z,2864.00
2023-05-21T07:56:16.450Z,2967.00
2023-05-21T07:57:16.432Z,2503.00
2023-05-21T07:58:16.417Z,2763.00
2023-05-21T07:59:16.413Z,2836.00
2023-05-21T08:00:16.403Z,2380.00
2023-05-21T08:01:16.405Z,2966.00
2023-05-21T08:02:16.380Z,2971.00
2023-05-21T08:03:16.624Z,3402.00
2023-05-21T08:04:16.467Z,2380.00
2023-05-21T08:05:16.518Z,2359.00
2023-05-21T08:06:16.337Z,3482.00
2023-05-21T08:07:16.327Z,2893.00
2023-05-21T08:08:16.316Z,2289.00
2023-05-21T08:09:16.309Z,2136.00
2023-05-21T08:10:19.090Z,2429.00
2023-05-21T08:11:16.340Z,2018.00
2023-05-21T08:12:16.294Z,2078.00
2023-05-21T08:13:16.306Z,2621.00
2023-05-21T08:14:16.253Z,2762.00
2023-05-21T08:15:16.258Z,3009.00
2023-05-21T08:16:16.249Z,3034.00
2023-05-21T08:17:16.217Z,2918.00
2023-05-21T08:18:16.201Z,2516.00
2023-05-21T08:19:16.248Z,2584.00
2023-05-21T08:20:16.183Z,2574.00
2023-05-21T08:21:16.176Z,2259.00
2023-05-21T08:22:16.163Z,2332.00
2023-05-21T08:23:16.156Z,2548.00
2023-05-21T08:24:16.144Z,2219.00
2023-05-21T08:25:16.137Z,2155.00
2023-05-21T08:26:16.117Z,2036.00
2023-05-21T08:27:16.188Z,2122.00
2023-05-21T08:28:16.102Z,2305.00
2023-05-21T08:29:16.099Z,2332.00
2023-05-21T08:30:16.070Z,2606.00
2023-05-21T08:31:16.102Z,2761.00
2023-05-21T08:32:16.298Z,3058.00
2023-05-21T08:33:16.053Z,3304.00
2023-05-21T08:34:16.027Z,3100.00
2023-05-21T08:35:16.046Z,3100.00
2023-05-21T08:36:16.009Z,3093.00
2023-05-21T08:37:16.004Z,3573.00
2023-05-21T08:38:15.992Z,3209.00
2023-05-21T08:39:15.983Z,3576.00
2023-05-21T08:40:15.969Z,2161.00
2023-05-21T08:41:15.968Z,3299.00
2023-05-21T08:42:22.634Z,3030.00
2023-05-21T08:43:17.001Z,3358.00
2023-05-21T08:44:15.922Z,3580.00
2023-05-21T08:45:15.920Z,3625.00
2023-05-21T08:46:15.938Z,3182.00
2023-05-21T08:47:15.900Z,3487.00
2023-05-21T08:48:15.882Z,3252.00
2023-05-21T08:49:15.874Z,3664.00
2023-05-21T08:50:15.854Z,3225.00
2023-05-21T08:51:15.859Z,3169.00
2023-05-21T08:52:15.837Z,3958.00
2023-05-21T08:53:27.368Z,3388.00
2023-05-21T08:54:16.873Z,2924.00
2023-05-21T08:55:15.814Z,2979.00
2023-05-21T08:56:15.795Z,3406.00
2023-05-21T08:57:15.791Z,3417.00
2023-05-21T08:58:15.775Z,3872.00
2023-05-21T08:59:15.793Z,3782.00
2023-05-21T09:00:15.750Z,3824.00
2023-05-21T09:01:15.812Z,3908.00
2023-05-21T09:02:15.744Z,3924.00
2023-05-21T09:03:15.870Z,3561.00
2023-05-21T09:04:20.702Z,3453.00
2023-05-21T09:05:15.707Z,4149.00
2023-05-21T09:06:15.684Z,4145.00
2023-05-21T09:07:15.688Z,3163.00
2023-05-21T09:08:15.670Z,4064.00
2023-05-21T09:09:15.662Z,3464.00
2023-05-21T09:10:15.656Z,4105.00
2023-05-21T09:11:15.640Z,3985.00
2023-05-21T09:12:15.634Z,4533.00
2023-05-21T09:13:15.617Z,4144.00
2023-05-21T09:14:15.591Z,4433.00
2023-05-21T09:15:15.622Z,3375.00
2023-05-21T09:16:15.584Z,5052.00
2023-05-21T09:17:15.576Z,5195.00
2023-05-21T09:18:15.591Z,5525.00
2023-05-21T09:19:15.601Z,5214.00
2023-05-21T09:20:15.532Z,5621.00
2023-05-21T09:21:15.532Z,5252.00
2023-05-21T09:22:15.511Z,4816.00
2023-05-21T09:23:15.511Z,5042.00
2023-05-21T09:24:15.510Z,5425.00
2023-05-21T09:25:15.513Z,4514.00
2023-05-21T09:26:15.479Z,4314.00
2023-05-21T09:27:15.468Z,4837.00
2023-05-21T09:28:15.477Z,4728.00
2023-05-21T09:29:15.453Z,4222.00
2023-05-21T09:30:15.457Z,4831.00
2023-05-21T09:31:15.500Z,4328.00
2023-05-21T09:32:15.412Z,4876.00
2023-05-21T09:33:15.418Z,4491.00
2023-05-21T09:34:15.393Z,4080.00
2023-05-21T09:35:15.399Z,4780.00
2023-05-21T09:36:15.384Z,4246.00
2023-05-21T09:37:26.471Z,4675.00
2023-05-21T09:38:16.401Z,4941.00
2023-05-21T09:39:15.342Z,5290.00
2023-05-21T09:40:15.328Z,5043.00
2023-05-21T09:41:17.875Z,5138.00
2023-05-21T09:42:15.303Z,5430.00
2023-05-21T09:43:15.311Z,4996.00
2023-05-21T09:44:15.298Z,5685.00
2023-05-21T09:45:15.286Z,6287.00
2023-05-21T09:46:15.295Z,6160.00
2023-05-21T09:47:15.288Z,6537.00
2023-05-21T09:48:15.255Z,6414.00
2023-05-21T09:49:15.240Z,6192.00
2023-05-21T09:50:15.222Z,6530.00
2023-05-21T09:51:15.244Z,6570.00
2023-05-21T09:52:15.209Z,6737.00
2023-05-21T09:53:15.200Z,7053.00
2023-05-21T09:54:15.179Z,6683.00
2023-05-21T09:55:15.179Z,6881.00
2023-05-21T09:56:15.165Z,6768.00
2023-05-21T09:57:15.159Z,6759.00
2023-05-21T09:58:15.139Z,6505.00
2023-05-21T09:59:15.141Z,6574.00
2023-05-21T10:00:15.128Z,6464.00
2023-05-21T10:01:15.151Z,6342.00
2023-05-21T10:02:15.194Z,6481.00
2023-05-21T10:03:15.210Z,6297.00
2023-05-21T10:04:15.112Z,6184.00
2023-05-21T10:05:15.077Z,6458.00
2023-05-21T10:06:15.053Z,6483.00
2023-05-21T10:07:15.055Z,6267.00
2023-05-21T10:08:15.032Z,5889.00
2023-05-21T10:09:15.040Z,6064.00
2023-05-21T10:10:15.020Z,6090.00
2023-05-21T10:11:15.017Z,6148.00
2023-05-21T10:12:14.999Z,7174.00
2023-05-21T10:13:14.998Z,6769.00
2023-05-21T10:14:14.973Z,6723.00
2023-05-21T10:15:14.992Z,7316.00
2023-05-21T10:16:15.007Z,6268.00
2023-05-21T10:17:14.952Z,6492.00
2023-05-21T10:18:14.941Z,6333.00
2023-05-21T10:19:14.990Z,6504.00
2023-05-21T10:20:14.910Z,6394.00
2023-05-21T10:21:14.919Z,6142.00
2023-05-21T10:22:14.886Z,7016.00
2023-05-21T10:23:14.886Z,6844.00
2023-05-21T10:24:14.876Z,6960.00
2023-05-21T10:25:14.872Z,6718.00
2023-05-21T10:26:14.845Z,7192.00
2023-05-21T10:27:14.849Z,6400.00
2023-05-21T10:28:14.836Z,6686.00
2023-05-21T10:29:16.276Z,5767.00
2023-05-21T10:30:14.820Z,5499.00
2023-05-21T10:31:14.806Z,5880.00
2023-05-21T10:32:14.872Z,5627.00
2023-05-21T10:33:14.932Z,5358.00
2023-05-21T10:34:14.771Z,6305.00
2023-05-21T10:35:14.794Z,6351.00
2023-05-21T10:36:14.748Z,5436.00
2023-05-21T10:37:14.749Z,5466.00
2023-05-21T10:38:14.730Z,5884.00
2023-05-21T10:39:14.724Z,5603.00
2023-05-21T10:40:14.709Z,5399.00
2023-05-21T10:41:14.711Z,5207.00
2023-05-21T10:42:14.684Z,6989.00
2023-05-21T10:43:14.685Z,6459.00
2023-05-21T10:44:14.661Z,6811.00
2023-05-21T10:45:14.658Z,7563.00
2023-05-21T10:46:14.726Z,6650.00
2023-05-21T10:47:14.639Z,6060.00
2023-05-21T10:48:14.683Z,6916.00
2023-05-21T10:49:14.631Z,5761.00
2023-05-21T10:50:14.611Z,6668.00
2023-05-21T10:51:14.638Z,5944.00
2023-05-21T10:52:14.583Z,6186.00
2023-05-21T10:53:14.589Z,6510.00
2023-05-21T10:54:14.566Z,6672.00
2023-05-21T10:55:14.569Z,6708.00
2023-05-21T10:56:14.544Z,7204.00
2023-05-21T10:57:14.544Z,6466.00
2023-05-21T10:58:14.526Z,6373.00
2023-05-21T10:59:14.514Z,6555.00
2023-05-21T11:00:14.541Z,6179.00
2023-05-21T11:01:14.532Z,6468.00
2023-05-21T11:02:14.512Z,6041.00
2023-05-21T11:03:14.618Z,6224.00
2023-05-21T11:04:14.462Z,6918.00
2023-05-21T11:05:14.459Z,6319.00
2023-05-21T11:06:14.439Z,6693.00
2023-05-21T11:07:14.469Z,6670.00
2023-05-21T11:08:14.433Z,6331.00
2023-05-21T11:09:14.420Z,6782.00
2023-05-21T11:10:14.425Z,6258.00
2023-05-21T11:11:14.393Z,6558.00
2023-05-21T11:12:14.397Z,5960.00
2023-05-21T11:13:14.390Z,6563.00
2023-05-21T11:14:14.371Z,6386.00
2023-05-21T11:15:14.354Z,6349.00
2023-05-21T11:16:14.329Z,6697.00
2023-05-21T11:17:14.521Z,7423.00
2023-05-21T11:18:14.322Z,6430.00
2023-05-21T11:19:14.355Z,7596.00
2023-05-21T11:20:14.389Z,6647.00
2023-05-21T11:21:14.298Z,6814.00
2023-05-21T11:22:14.279Z,6752.00
2023-05-21T11:23:14.300Z,6871.00
2023-05-21T11:24:14.257Z,6787.00
2023-05-21T11:25:14.250Z,7270.00
2023-05-21T11:26:14.234Z,7141.00
2023-05-21T11:27:14.236Z,6765.00
2023-05-21T11:28:14.212Z,6891.00
2023-05-21T11:29:14.219Z,6836.00
2023-05-21T11:30:14.211Z,7003.00
2023-05-21T11:31:14.221Z,7336.00
2023-05-21T11:32:14.185Z,7629.00
2023-05-21T11:33:14.416Z,7607.00
2023-05-21T11:34:14.166Z,7681.00
2023-05-21T11:35:14.155Z,7789.00
2023-05-21T11:36:14.140Z,7432.00
2023-05-21T11:37:14.141Z,7779.00
2023-05-21T11:38:14.136Z,7470.00
2023-05-21T11:39:14.130Z,7820.00
2023-05-21T11:40:14.122Z,7694.00
2023-05-21T11:41:14.098Z,8006.00
2023-05-21T11:42:14.085Z,7860.00
2023-05-21T11:43:14.076Z,8118.00
2023-05-21T11:44:14.074Z,7910.00
2023-05-21T11:45:14.047Z,8360.00
2023-05-21T11:46:14.101Z,7925.00
2023-05-21T11:47:14.028Z,8493.00
2023-05-21T11:48:14.032Z,8862.00
2023-05-21T11:49:14.011Z,7738.00
2023-05-21T11:50:14.021Z,7640.00
2023-05-21T11:51:13.981Z,9759.00
2023-05-21T11:52:13.998Z,10897.00
2023-05-21T11:53:13.965Z,9963.00
2023-05-21T11:54:13.965Z,10801.00
2023-05-21T11:55:13.971Z,11859.00
2023-05-21T11:56:13.940Z,8690.00
2023-05-21T11:57:13.930Z,9796.00
2023-05-21T11:58:13.923Z,10381.00
2023-05-21T11:59:14.261Z,5909.00
2023-05-21T12:00:13.931Z,6139.00
2023-05-21T12:01:13.889Z,27612.00
2023-05-21T12:02:13.896Z,34465.00
2023-05-21T12:03:13.944Z,15954.00
2023-05-21T12:04:13.877Z,6788.00
2023-05-21T12:05:13.874Z,77199.00
2023-05-21T12:06:13.903Z,74238.00
2023-05-21T12:07:13.837Z,33222.00
2023-05-21T12:08:13.826Z,29150.00
2023-05-21T12:09:13.815Z,5233.00
2023-05-21T12:10:13.814Z,65267.00
2023-05-21T12:11:13.825Z,10171.00
2023-05-21T12:12:13.804Z,21050.00
2023-05-21T12:13:13.790Z,27611.00
2023-05-21T12:14:13.820Z,21933.00
2023-05-21T12:15:13.797Z,26743.00
2023-05-21T12:16:13.800Z,15171.00
2023-05-21T12:17:13.744Z,27267.00
2023-05-21T12:18:13.790Z,25739.00
2023-05-21T12:19:13.785Z,32853.00
2023-05-21T12:20:13.729Z,26359.00
2023-05-21T12:21:13.710Z,75301.00
2023-05-21T12:22:13.706Z,74572.00
2023-05-21T12:23:13.679Z,73948.00
2023-05-21T12:24:13.676Z,32936.00
2023-05-21T12:25:13.675Z,29738.00
2023-05-21T12:26:13.668Z,31744.00
2023-05-21T12:27:13.784Z,30411.00
2023-05-21T12:28:13.643Z,30368.00